METAR stanice u blizini

 

LYBE - Beograd / Surčin, Srbija
Ažurirano: 16/06/2024 03:30
Vedro
Vedro
 Pravac vetra SSI
Vetar: SSI 4 km/h
Temperatura: 18°C
Tačka rose: 12°C
Vlažnost: 68%
Pritisak: 1011 hPa
Pregled: Vedro
Vidljivost: greater than 10 km
2024/06/16 01:30 LYBE 160130Z 03002KT CAVOK 18/12 Q1011 NOSIG
LYBT - Beograd / Batajnica, Srbija
Ažurirano: 16/06/2024 03:30
Vedro
Vedro
 Pravac vetra SSI
Vetar: SSI 4 km/h
Temperatura: 15°C
Tačka rose: 14°C
Vlažnost: 94%
Pritisak: 1011 hPa
Pregled: Vedro
Vidljivost: greater than 10 km
2024/06/16 01:30 LYBT 160130Z 02002KT CAVOK 15/14 Q1011 NOSIG
LYVR - Vršac, Srbija
Ažurirano: 16/06/2024 03:30
Vedro
Vedro
 Pravac vetra calm
Vetar: Tišina
Temperatura: 11°C
Tačka rose: 11°C
Vlažnost: 100%
Pritisak: 1011 hPa
Pregled: Vedro
Vidljivost: greater than 10 km
2024/06/16 01:30 LYVR 160130Z AUTO 00000KT CAVOK 11/11 Q1011
 
LYKV - Lađevci, Srbija
Ažurirano: 16/06/2024 03:30
Vedro
Vedro
 Pravac vetra varies
Vetar: varies 2 km/h
Temperatura: 13°C
Tačka rose: 13°C
Vlažnost: 100%
Pritisak: 1012 hPa
Pregled: Vedro
Vidljivost: greater than 10 km
2024/06/16 01:30 LYKV 160130Z VRB01KT CAVOK 13/13 Q1012 NOSIG
LYNI - Niš, Srbija
Ažurirano: 16/06/2024 03:30
Vedro
Vedro
 Pravac vetra I
Vetar: I 4 km/h
Temperatura: 16°C
Tačka rose: 12°C
Vlažnost: 77%
Pritisak: 1013 hPa
Pregled: Vedro
Vidljivost: greater than 10 km
2024/06/16 01:30 LYNI 160130Z 09002KT CAVOK 16/12 Q1013 NOSIG
BKPR - Priština, Srbija
Ažurirano: 16/06/2024 03:30
Vedro
Vedro
 Pravac vetra SSZ
Vetar: SSZ 6 km/h
Temperatura: 15°C
Tačka rose: 12°C
Vlažnost: 82%
Pritisak: 1014 hPa
Pregled: Vedro
Vidljivost: greater than 10 km
2024/06/16 01:30 BKPR 160130Z 33003KT CAVOK 15/12 Q1014 NOSIG
 
LHPP - Pecs / Pogany, Hungary
Ažurirano: 16/06/2024 03:15
Vedro
Vedro
 Pravac vetra ZJZ
Vetar: ZJZ 9 km/h
Temperatura: 17°C
Tačka rose: 14°C
Vlažnost: 83%
Pritisak: 1011 hPa
Pregled: Vedro
Vidljivost: greater than 10 km
2024/06/16 01:15 LHPP 160115Z AUTO 25005KT CAVOK 17/14 Q1011
LHUD - Szeged, Hungary
Ažurirano: 04/07/2019 01:45
NOT Current
Vedro
Vedro
 Pravac vetra S
Vetar: S 7 km/h
Temperatura: 18°C
Tačka rose: 13°C
Vlažnost: 73%
Pritisak: 1019 hPa
Pregled: Vedro
Vidljivost: greater than 10 km
2019/07/03 23:45 LHUD 032345Z 35004KT CAVOK 18/13 Q1019
LRTR - Timisoara, Romania
Ažurirano: 16/06/2024 03:30
Vedro
Vedro
 Pravac vetra I
Vetar: I 9 km/h
Temperatura: 14°C
Tačka rose: 14°C
Vlažnost: 100%
Pritisak: 1011 hPa
Pregled: Vedro
Vidljivost: greater than 10 km
2024/06/16 01:30 LRTR 160130Z 09005KT CAVOK 14/14 Q1011
 
LRCV - Craiova, Romania
Ažurirano: 16/06/2024 03:30
Vedro
Vedro
 Pravac vetra SI
Vetar: SI 9 km/h
Temperatura: 13°C
Tačka rose: 11°C
Vlažnost: 88%
Pritisak: 1011 hPa
Pregled: Vedro
Vidljivost: greater than 10 km
2024/06/16 01:30 LRCV 160130Z 04005KT CAVOK 13/11 Q1011
LBSF - Sofia, Bulgaria
Ažurirano: 16/06/2024 03:30
Vedro
Vedro
 Pravac vetra SZ
Vetar: SZ 6 km/h
Temperatura: 12°C
Tačka rose: 10°C
Vlažnost: 88%
Pritisak: 1013 hPa
Oblaci: Vedro
Vidljivost: 10 km
2024/06/16 01:30 LBSF 160130Z AUTO 32003KT 290V350 9999 NCD 12/10 Q1013 NOSIG
LWSK - Skoplje, Makedonija
Ažurirano: 16/06/2024 03:20
Vedro
Vedro
 Pravac vetra IJI
Vetar: IJI 6 km/h
Temperatura: 17°C
Tačka rose: 13°C
Vlažnost: 77%
Pritisak: 1012 hPa
Pregled: Vedro
Vidljivost: greater than 10 km
2024/06/16 01:20 LWSK 160120Z 11003KT 040V140 CAVOK 17/13 Q1012 NOSIG
 
LYPG - Podgorica, Crna Gora
Ažurirano: 16/06/2024 03:30
Vedro
Vedro
 Pravac vetra varies
Vetar: varies 2 km/h
Temperatura: 18°C
Tačka rose: 15°C
Vlažnost: 83%
Pritisak: 1012 hPa
Pregled: Vedro
Vidljivost: greater than 10 km
2024/06/16 01:30 LYPG 160130Z VRB01KT CAVOK 18/15 Q1012 NOSIG
LQSA - Sarajevo, Bosna i Hercegovina
Ažurirano: 16/06/2024 03:30
Vedro
Vedro
 Pravac vetra varies
Vetar: varies 6 km/h
Temperatura: 14°C
Tačka rose: 12°C
Vlažnost: 88%
Pritisak: 1014 hPa
Pregled: Vedro
Vidljivost: greater than 10 km
2024/06/16 01:30 LQSA 160130Z VRB03KT CAVOK 14/12 Q1014
LDOS - Osijek, Hrvatksa
Ažurirano: 16/06/2024 03:30
Vedro
Vedro
 Pravac vetra varies
Vetar: varies 2 km/h
Temperatura: 16°C
Tačka rose: 15°C
Vlažnost: 94%
Pritisak: 1011 hPa
Pregled: Vedro
Vidljivost: greater than 10 km
2024/06/16 01:30 LDOS 160130Z VRB01KT CAVOK 16/15 Q1011